Time;durP1;ratioP1;P1;durP2;ratioP2;P2;SDS_P1;SDS_P2;PMS_P1;PMS_P2;Temp;Humidity;BMP_temperature;BMP_pressure;BME280_temperature;BME280_humidity;BME280_pressure;Samples;Min_cycle;Max_cycle;Signal;HPM_P1;HPM_P2
2023/10/12 00:01:59;;;;;;;7.90;3.80;;;;;;;11.35;65.80;100264.28;6113247;23;20080;-91
2023/10/12 00:04:38;;;;;;;11.52;3.40;;;;;;;11.38;65.66;100263.81;6118992;23;20000;-92
2023/10/12 00:07:15;;;;;;;8.63;3.78;;;;;;;11.32;66.15;100269.13;6139565;23;20087;-91
2023/10/12 00:09:47;;;;;;;4.85;2.92;;;;;;;11.17;66.09;100260.06;6139042;23;20372;-91
2023/10/12 00:12:14;;;;;;;6.15;3.42;;;;;;;11.26;65.69;100270.13;6139238;23;20020;-90
2023/10/12 00:14:41;;;;;;;6.72;3.15;;;;;;;11.03;66.57;100255.00;6138062;23;20431;-90
2023/10/12 00:17:07;;;;;;;4.53;3.10;;;;;;;11.06;66.75;100268.00;6138180;23;19997;-90
2023/10/12 00:19:33;;;;;;;5.97;3.40;;;;;;;10.97;66.77;100266.78;6136486;23;20001;-91
2023/10/12 00:22:02;;;;;;;6.40;3.85;;;;;;;11.01;66.47;100257.13;6161282;23;20012;-91
2023/10/12 00:24:28;;;;;;;7.65;2.92;;;;;;;10.85;66.65;100250.75;6138272;23;20005;-91
2023/10/12 00:26:53;;;;;;;3.55;2.75;;;;;;;10.77;66.57;100259.25;6136359;23;20351;-91
2023/10/12 00:29:19;;;;;;;3.72;2.53;;;;;;;10.75;66.61;100241.69;6112339;23;20083;-92
2023/10/12 00:31:49;;;;;;;4.10;2.70;;;;;;;10.70;66.42;100240.56;6136806;23;20075;-91
2023/10/12 00:34:16;;;;;;;5.13;2.83;;;;;;;10.86;67.00;100268.53;6138862;23;19989;-91
2023/10/12 00:36:41;;;;;;;6.50;3.30;;;;;;;10.60;67.29;100242.28;6113032;23;20001;-91
2023/10/12 00:39:11;;;;;;;5.05;2.90;;;;;;;10.59;67.19;100237.97;6137660;23;20077;-91
2023/10/12 00:41:44;;;;;;;5.75;2.90;;;;;;;10.74;66.97;100261.63;6137233;23;19993;-91
2023/10/12 00:44:10;;;;;;;5.82;3.42;;;;;;;10.63;67.06;100245.31;6114487;23;19997;-91
2023/10/12 00:49:20;;;;;;;5.28;2.70;;;;;;;10.69;66.81;100241.63;6137080;23;20016;-91
2023/10/12 00:51:51;;;;;;;4.93;2.95;;;;;;;10.67;66.95;100230.28;6144289;23;20001;-90
2023/10/12 00:54:27;;;;;;;4.38;3.10;;;;;;;10.60;67.10;100226.94;6113994;23;20369;-91
2023/10/12 00:56:57;;;;;;;4.13;2.30;;;;;;;10.57;67.07;100240.09;6115073;23;20012;-91
2023/10/12 00:59:23;;;;;;;4.15;2.40;;;;;;;10.49;67.11;100230.56;6112378;23;20487;-91
2023/10/12 01:01:53;;;;;;;5.20;2.72;;;;;;;10.42;67.38;100233.41;6112352;23;20064;-90
2023/10/12 01:04:18;;;;;;;3.97;2.30;;;;;;;10.40;67.41;100232.03;6137951;23;20410;-91
2023/10/12 01:06:47;;;;;;;3.25;2.03;;;;;;;10.29;67.44;100215.72;6137115;23;20103;-91
2023/10/12 01:09:19;;;;;;;4.47;2.28;;;;;;;10.29;67.63;100231.00;6113043;23;20057;-91
2023/10/12 01:11:52;;;;;;;5.00;2.42;;;;;;;10.29;67.81;100222.94;6133385;23;20010;-89
2023/10/12 01:14:18;;;;;;;4.45;2.45;;;;;;;10.25;67.82;100232.56;6109293;23;20021;-90
2023/10/12 01:16:54;;;;;;;5.50;2.42;;;;;;;10.14;67.81;100220.81;6132116;23;20009;-90
2023/10/12 01:19:23;;;;;;;5.97;2.42;;;;;;;10.11;68.06;100229.41;6132238;23;20020;-90
2023/10/12 01:21:55;;;;;;;3.92;2.17;;;;;;;10.13;68.07;100238.06;6132925;23;20073;-90
2023/10/12 01:24:30;;;;;;;8.45;2.33;;;;;;;9.97;68.36;100231.59;6108309;23;20001;-90
2023/10/12 01:26:56;;;;;;;8.43;2.30;;;;;;;9.99;68.32;100234.84;6131390;23;20043;-90
2023/10/12 01:29:21;;;;;;;7.68;2.47;;;;;;;9.97;68.73;100233.47;6108192;23;20006;-90
2023/10/12 01:32:08;;;;;;;3.50;2.50;;;;;;;9.95;68.28;100216.75;6132373;23;20171;-91
2023/10/12 01:34:43;;;;;;;3.03;2.30;;;;;;;9.89;68.04;100205.88;6111530;23;20033;-90
2023/10/12 01:37:21;;;;;;;2.75;1.85;;;;;;;9.88;68.62;100216.91;6108290;23;20005;-90
2023/10/12 01:45:24;;;;;;;3.67;2.20;;;;;;;9.82;68.80;100232.13;6135210;23;20009;-90
2023/10/12 01:48:05;;;;;;;4.78;2.58;;;;;;;9.75;68.83;100234.16;6133617;23;20068;-90
2023/10/12 01:50:33;;;;;;;3.40;1.95;;;;;;;9.82;69.11;100242.91;6134660;23;20009;-91
2023/10/12 01:53:06;;;;;;;5.20;2.20;;;;;;;9.79;69.20;100245.25;6133278;23;20009;-91
2023/10/12 01:55:32;;;;;;;3.30;1.98;;;;;;;9.63;69.43;100225.31;6133103;23;20083;-90
2023/10/12 01:57:58;;;;;;;3.88;2.20;;;;;;;9.65;69.08;100228.59;6158559;23;20035;-90
2023/10/12 02:00:26;;;;;;;5.80;2.03;;;;;;;9.72;68.88;100226.59;6133453;23;20068;-91
2023/10/12 02:03:01;;;;;;;3.70;2.03;;;;;;;9.59;69.64;100229.56;6109427;23;20006;-90
2023/10/12 02:05:34;;;;;;;4.07;2.20;;;;;;;9.55;69.13;100233.81;6135460;23;20373;-90
2023/10/12 02:08:05;;;;;;;4.97;2.53;;;;;;;9.48;69.25;100232.06;6134161;23;20001;-91
2023/10/12 02:10:41;;;;;;;4.20;2.00;;;;;;;9.55;69.16;100237.31;6146963;23;20032;-89
2023/10/12 02:13:07;;;;;;;5.95;2.17;;;;;;;9.45;69.14;100215.59;6118498;23;20095;-89
2023/10/12 02:15:32;;;;;;;4.13;2.17;;;;;;;9.54;68.82;100224.91;6138788;23;20421;-90
2023/10/12 02:17:59;;;;;;;3.58;2.15;;;;;;;9.53;69.30;100228.66;6139324;23;20005;-90
2023/10/12 02:20:32;;;;;;;8.65;2.45;;;;;;;9.60;68.99;100234.69;6116026;23;20424;-90
2023/10/12 02:23:01;;;;;;;4.93;2.40;;;;;;;9.47;69.27;100208.91;6143241;23;20005;-90
2023/10/12 02:25:28;;;;;;;4.88;2.30;;;;;;;9.59;68.73;100222.31;6139762;23;20027;-90
2023/10/12 02:27:58;;;;;;;7.13;2.90;;;;;;;9.62;69.42;100234.47;6114659;23;20005;-91
2023/10/12 02:30:30;;;;;;;3.90;2.58;;;;;;;9.49;69.40;100220.25;6164519;23;20448;-92
2023/10/12 02:33:00;;;;;;;7.07;2.20;;;;;;;9.49;69.71;100220.25;6141180;23;20005;-91
2023/10/12 02:35:36;;;;;;;4.13;2.20;;;;;;;9.37;69.79;100207.91;6116273;23;20083;-91
2023/10/12 02:38:04;;;;;;;5.38;2.13;;;;;;;9.56;69.17;100243.47;6117359;23;20056;-90
2023/10/12 02:40:32;;;;;;;3.95;2.10;;;;;;;9.35;69.49;100215.41;6138695;23;20412;-90
2023/10/12 02:42:59;;;;;;;4.22;2.03;;;;;;;9.28;69.54;100215.56;6139338;23;20001;-90
2023/10/12 02:45:27;;;;;;;7.22;2.45;;;;;;;9.40;69.27;100226.25;6138822;23;20009;-90
2023/10/12 02:47:53;;;;;;;4.25;2.22;;;;;;;9.36;69.36;100227.78;6113595;23;20020;-90
2023/10/12 02:50:27;;;;;;;3.58;2.30;;;;;;;9.22;69.49;100209.25;6136863;23;20005;-88
2023/10/12 02:52:53;;;;;;;5.55;2.38;;;;;;;9.17;69.59;100211.00;6141026;23;20028;-90
2023/10/12 02:57:59;;;;;;;6.60;2.47;;;;;;;9.20;69.80;100215.94;6139215;23;20032;-90
2023/10/12 03:00:46;;;;;;;5.35;2.15;;;;;;;9.18;70.07;100226.09;6118773;23;20028;-90
2023/10/12 03:06:12;;;;;;;3.83;2.50;;;;;;;9.15;70.47;100227.41;6189085;23;20020;-90
2023/10/12 03:11:32;;;;;;;3.33;2.03;;;;;;;9.06;70.29;100224.25;6144189;23;20474;-90
2023/10/12 03:14:03;;;;;;;4.97;2.20;;;;;;;9.09;69.91;100215.72;6114191;23;20004;-90
2023/10/12 03:16:34;;;;;;;6.80;2.50;;;;;;;9.16;69.92;100225.50;6114958;23;20436;-91
2023/10/12 03:19:00;;;;;;;3.95;2.17;;;;;;;9.13;70.10;100225.97;6114857;23;20001;-90
2023/10/12 03:21:33;;;;;;;6.30;2.40;;;;;;;9.12;69.63;100205.56;6137967;23;20024;-91
2023/10/12 03:24:02;;;;;;;4.55;2.60;;;;;;;9.22;69.94;100219.19;6138380;23;20024;-90
2023/10/12 03:26:33;;;;;;;4.30;2.05;;;;;;;9.05;69.66;100203.00;6114145;23;20005;-91
2023/10/12 03:29:32;;;;;;;4.68;2.58;;;;;;;8.93;70.17;100202.22;6114708;23;19977;-89
2023/10/12 03:31:54;;;;;;;10.32;2.45;;;;;;;8.87;69.94;100210.16;6143671;23;20016;-90
2023/10/12 03:37:01;;;;;;;4.72;2.42;;;;;;;8.85;70.63;100212.25;6143405;23;20399;-91
2023/10/12 03:39:27;;;;;;;3.63;2.53;;;;;;;8.88;70.66;100211.81;6113622;23;20147;-91
2023/10/12 03:52:39;;;;;;;8.30;4.55;;;;;;;8.79;71.03;100207.81;6143219;23;20348;-90
2023/10/12 04:02:39;;;;;;;6.75;3.08;;;;;;;8.93;70.32;100213.78;6142106;23;20016;-91
2023/10/12 04:05:20;;;;;;;7.43;3.25;;;;;;;8.95;70.68;100214.34;6143135;23;20001;-90
2023/10/12 04:08:17;;;;;;;4.55;3.03;;;;;;;8.94;70.14;100210.00;6140131;23;20036;-93
2023/10/12 04:19:02;;;;;;;6.68;3.70;;;;;;;8.77;69.47;100204.56;6144985;23;20011;-93
2023/10/12 04:24:43;;;;;;;4.53;2.67;;;;;;;8.63;69.73;100203.19;6088154;23;20049;-92
2023/10/12 04:30:32;;;;;;;5.53;3.28;;;;;;;8.31;71.19;100192.78;6070486;23;20017;-91
2023/10/12 04:33:11;;;;;;;7.25;3.45;;;;;;;8.35;71.08;100193.13;6061268;23;20038;-91
2023/10/12 04:38:23;;;;;;;8.60;4.30;;;;;;;8.47;70.41;100185.94;6079504;23;20013;-92
2023/10/12 04:43:36;;;;;;;7.85;3.42;;;;;;;8.47;71.35;100213.59;6087974;23;20017;-94
2023/10/12 04:46:47;;;;;;;6.28;3.13;;;;;;;8.40;71.26;100186.00;6056889;23;20084;-92
2023/10/12 04:49:01;;;;;;;12.45;5.03;;;;;;;8.68;70.82;100224.78;6112825;23;20006;-91
2023/10/12 04:51:30;;;;;;;15.25;6.05;;;;;;;8.41;71.09;100194.91;6058376;23;20436;-92
2023/10/12 04:54:15;;;;;;;19.90;5.80;;;;;;;8.43;71.09;100185.56;6080792;23;20022;-94
2023/10/12 04:56:51;;;;;;;12.13;7.05;;;;;;;8.44;71.50;100205.16;6145628;23;20007;-91
2023/10/12 04:59:26;;;;;;;12.57;4.43;;;;;;;8.52;71.17;100204.81;6120042;23;20001;-91
2023/10/12 05:09:35;;;;;;;13.73;5.22;;;;;;;8.69;70.89;100211.13;6160367;23;20005;-89
2023/10/12 05:12:00;;;;;;;14.52;7.13;;;;;;;8.90;70.72;100222.28;6181840;23;20013;-86
2023/10/12 05:14:26;;;;;;;13.00;4.88;;;;;;;8.86;70.36;100202.31;6185844;23;20001;-89
2023/10/12 05:16:51;;;;;;;12.52;4.13;;;;;;;8.99;69.85;100201.28;6135217;23;20020;-89
2023/10/12 05:19:17;;;;;;;14.15;4.70;;;;;;;9.02;70.00;100214.22;6160878;23;20001;-91
2023/10/12 05:21:43;;;;;;;16.50;4.20;;;;;;;9.11;69.61;100220.88;6135804;23;20348;-90
2023/10/12 05:24:11;;;;;;;13.07;4.47;;;;;;;9.20;68.91;100222.09;6136161;23;20018;-93
2023/10/12 05:26:37;;;;;;;11.65;4.70;;;;;;;9.24;68.81;100200.97;6160237;23;20004;-92
2023/10/12 05:29:34;;;;;;;11.40;5.03;;;;;;;9.37;68.44;100210.59;6135814;23;20016;-90
2023/10/12 05:32:06;;;;;;;19.13;4.70;;;;;;;9.39;68.27;100206.63;6126208;23;20068;-91
2023/10/12 05:37:16;;;;;;;9.75;5.22;;;;;;;9.56;68.65;100232.72;6141689;23;20011;-92
2023/10/12 05:39:50;;;;;;;13.98;4.90;;;;;;;9.50;68.18;100240.72;6140716;23;20281;-90
2023/10/12 05:42:19;;;;;;;14.10;5.82;;;;;;;9.43;68.29;100220.41;6164308;23;20088;-90
2023/10/12 05:44:48;;;;;;;15.25;5.85;;;;;;;9.44;68.36;100217.47;6162100;23;20320;-90
2023/10/12 05:47:18;;;;;;;15.57;6.82;;;;;;;9.59;68.35;100224.19;6114663;23;20000;-92
2023/10/12 05:49:45;;;;;;;22.50;6.90;;;;;;;9.64;67.98;100233.16;6138658;23;20430;-89
2023/10/12 05:52:11;;;;;;;21.70;9.65;;;;;;;9.69;67.88;100235.13;6138136;23;20008;-91
2023/10/12 05:54:43;;;;;;;16.85;5.50;;;;;;;9.85;67.99;100233.53;6141508;23;20047;-93
2023/10/12 05:57:22;;;;;;;21.45;7.18;;;;;;;10.14;67.22;100263.88;6118879;23;20451;-90
2023/10/12 05:59:48;;;;;;;16.60;5.35;;;;;;;10.09;67.51;100242.28;6141584;23;20080;-90
2023/10/12 06:02:19;;;;;;;13.85;5.63;;;;;;;10.18;66.81;100232.75;6162284;23;20012;-89
2023/10/12 06:04:45;;;;;;;14.63;6.90;;;;;;;10.32;66.46;100236.75;6139692;23;20348;-90
2023/10/12 06:07:10;;;;;;;19.33;8.30;;;;;;;10.45;66.15;100237.50;6114120;23;19997;-90
2023/10/12 06:09:37;;;;;;;18.38;5.72;;;;;;;10.56;65.87;100241.97;6188068;23;20008;-91
2023/10/12 06:12:08;;;;;;;16.88;5.03;;;;;;;10.77;65.55;100242.25;6113834;23;20009;-93
2023/10/12 06:14:38;;;;;;;7.60;4.65;;;;;;;10.76;65.10;100241.44;6164881;23;20005;-92
2023/10/12 06:17:27;;;;;;;9.00;4.75;;;;;;;10.97;64.93;100252.50;6140091;23;20008;-93
2023/10/12 06:19:54;;;;;;;15.35;4.40;;;;;;;11.12;64.71;100240.06;6142385;23;20340;-90
2023/10/12 06:22:20;;;;;;;11.15;4.72;;;;;;;11.27;64.11;100242.13;6162411;23;20009;-89
2023/10/12 06:24:49;;;;;;;7.40;3.50;;;;;;;11.29;63.21;100244.56;6137190;23;20024;-89
2023/10/12 06:29:50;;;;;;;7.15;2.78;;;;;;;11.35;62.29;100234.63;6140222;23;20009;-90
2023/10/12 06:32:19;;;;;;;10.18;3.30;;;;;;;11.51;62.37;100239.94;6113243;23;20147;-89
2023/10/12 06:34:45;;;;;;;15.70;2.75;;;;;;;11.52;62.29;100220.00;6139037;23;20552;-90
2023/10/12 06:45:52;;;;;;;9.20;4.20;;;;;;;12.27;60.26;100243.66;6145055;23;20009;-90
2023/10/12 06:53:53;;;;;;;5.63;2.70;;;;;;;12.53;58.47;100204.13;6087010;23;20012;-92
2023/10/12 07:01:53;;;;;;;10.20;3.40;;;;;;;12.91;58.09;100215.72;6147089;23;20446;-89
2023/10/12 07:04:27;;;;;;;4.20;2.58;;;;;;;12.94;57.89;100207.88;6168277;23;20029;-90
2023/10/12 07:07:00;;;;;;;6.70;3.00;;;;;;;13.12;56.39;100220.13;6115537;23;20005;-89
2023/10/12 07:09:46;;;;;;;6.00;3.05;;;;;;;13.31;56.18;100225.09;6163586;23;20008;-90
2023/10/12 07:12:19;;;;;;;7.97;4.50;;;;;;;13.43;56.68;100217.56;6120084;23;20013;-90
2023/10/12 07:14:47;;;;;;;9.50;3.55;;;;;;;13.47;55.93;100205.13;6115341;23;19997;-92
2023/10/12 07:17:24;;;;;;;9.93;3.95;;;;;;;13.71;55.26;100223.56;6139352;23;19997;-93
2023/10/12 07:20:01;;;;;;;10.02;3.42;;;;;;;13.76;55.68;100215.47;6117058;23;20001;-91
2023/10/12 07:22:37;;;;;;;8.88;3.50;;;;;;;13.83;55.73;100204.34;6162592;23;20004;-92
2023/10/12 07:25:04;;;;;;;10.57;4.25;;;;;;;14.07;55.14;100235.25;6140167;23;20016;-92
2023/10/12 07:27:48;;;;;;;10.45;5.28;;;;;;;14.04;55.05;100216.00;6138267;23;20005;-90
2023/10/12 07:33:04;;;;;;;5.82;3.50;;;;;;;14.32;53.97;100228.19;6187713;23;20020;-90
2023/10/12 07:35:53;;;;;;;6.88;2.83;;;;;;;14.43;53.70;100227.09;6137792;23;19997;-91
2023/10/12 07:38:36;;;;;;;7.70;2.53;;;;;;;14.59;53.49;100227.09;6168374;23;20001;-96
2023/10/12 07:41:05;;;;;;;4.40;2.60;;;;;;;14.76;52.82;100222.19;6141638;23;19993;-94
2023/10/12 07:43:38;;;;;;;7.32;2.53;;;;;;;14.81;51.73;100226.78;6140177;23;19997;-91
2023/10/12 07:46:25;;;;;;;6.60;3.50;;;;;;;14.77;51.70;100195.88;6117005;23;19997;-92
2023/10/12 07:48:51;;;;;;;6.13;2.95;;;;;;;15.10;51.56;100219.63;6141222;23;20001;-92
2023/10/12 07:51:31;;;;;;;4.35;2.58;;;;;;;15.09;51.20;100184.66;6138079;23;20454;-92
2023/10/12 07:54:42;;;;;;;;;;;;;;;15.43;50.52;100214.56;6124339;23;20348;-89
2023/10/12 07:56:54;;;;;;;5.68;2.20;;;;;;;15.29;50.37;100173.69;6187269;23;19904;-89
2023/10/12 07:59:23;;;;;;;6.65;2.45;;;;;;;15.62;49.89;100209.31;6136328;23;20005;-89
2023/10/12 08:01:50;;;;;;;6.00;2.38;;;;;;;15.57;49.67;100174.06;6111108;23;20016;-88
2023/10/12 08:04:33;;;;;;;8.35;2.40;;;;;;;15.73;49.48;100175.59;6136355;23;20058;-89
2023/10/12 08:07:07;;;;;;;8.13;2.70;;;;;;;15.80;49.68;100160.91;6142793;23;20005;-89
2023/10/12 08:12:01;;;;;;;5.30;3.42;;;;;;;16.16;48.83;100172.25;6136349;23;19997;-91
2023/10/12 08:19:43;;;;;;;7.68;4.00;;;;;;;16.49;46.69;100153.44;6187892;23;20323;-89
2023/10/12 08:22:25;;;;;;;6.82;3.40;;;;;;;16.71;46.70;100167.34;6138504;23;20075;-91
2023/10/12 08:24:58;;;;;;;10.55;2.58;;;;;;;16.77;46.17;100159.94;6120916;23;20351;-92
2023/10/12 08:27:39;;;;;;;4.13;2.05;;;;;;;16.80;45.91;100150.38;6138322;23;20028;-90
2023/10/12 08:30:29;;;;;;;;;;;;;;;;;;;;;
2023/10/12 08:33:00;;;;;;;3.00;1.63;;;;;;;17.11;44.25;100151.63;6148087;23;20772;-92
2023/10/12 08:38:33;;;;;;;5.72;3.33;;;;;;;17.30;44.69;100138.03;6161955;23;20005;-92
2023/10/12 08:49:52;;;;;;;;;;;;;;;;;;;;;
2023/10/12 08:52:27;;;;;;;5.40;2.10;;;;;;;17.95;43.49;100142.78;6099715;23;20476;-91
2023/10/12 08:55:11;;;;;;;3.22;1.73;;;;;;;17.91;43.74;100119.16;6140921;23;20055;-91
2023/10/12 08:58:01;;;;;;;4.13;2.30;;;;;;;18.15;44.16;100149.78;6117190;23;20001;-91
2023/10/12 09:05:57;;;;;;;6.40;2.10;;;;;;;18.13;43.21;100107.56;6137897;23;20024;-91
2023/10/12 09:11:26;;;;;;;;;;;;;;;;;;;;;
2023/10/12 09:13:58;;;;;;;9.05;4.40;;;;;;;18.46;42.66;100102.06;6158863;23;20012;-95
2023/10/12 09:16:32;;;;;;;;;;;;;;;18.70;42.45;100123.66;6128084;23;20015;-95
2023/10/12 09:19:23;;;;;;;3.92;2.00;;;;;;;18.64;42.48;100089.44;6178556;23;19927;-96
2023/10/12 09:22:29;;;;;;;3.72;1.67;;;;;;;18.87;41.61;100112.16;6160671;23;20008;-96
2023/10/12 09:25:04;;;;;;;5.45;2.03;;;;;;;18.80;41.68;100085.28;6156154;23;20044;-96
2023/10/12 09:27:48;;;;;;;3.88;1.85;;;;;;;18.95;41.76;100086.88;6158602;23;20093;-96
2023/10/12 09:30:46;;;;;;;;;;;;;;;;;;;;;
2023/10/12 09:38:38;;;;;;;2.55;1.55;;;;;;;19.26;39.94;100070.59;6222524;22;20023;-95
2023/10/12 09:41:29;;;;;;;;;;;;;;;;;;;;;
2023/10/12 09:47:36;;;;;;;;;;;;;;;;;;;;;
2023/10/12 09:54:05;;;;;;;3.50;1.70;;;;;;;19.62;39.09;100058.78;6134664;23;20490;-93
2023/10/12 09:57:08;;;;;;;;;;;;;;;;;;;;;
2023/10/12 09:59:51;;;;;;;3.20;1.90;;;;;;;19.66;39.56;100037.94;6189614;23;20035;-91
2023/10/12 10:02:33;;;;;;;2.67;1.52;;;;;;;19.84;38.42;100048.97;6176157;23;19996;-92
2023/10/12 10:05:52;;;;;;;5.10;2.28;;;;;;;19.91;38.47;100047.41;6197357;23;20020;-92
2023/10/12 10:09:04;;;;;;;;;;;;;;;19.96;38.09;100047.28;6199936;23;20004;-90
2023/10/12 10:11:26;;;;;;;2.47;1.55;;;;;;;19.90;38.38;100023.13;6189632;23;19966;-91
2023/10/12 10:13:58;;;;;;;2.30;1.40;;;;;;;19.86;36.43;100019.41;6168175;23;19997;-91
2023/10/12 10:16:26;;;;;;;3.20;1.60;;;;;;;19.94;36.26;100007.69;6167280;23;20359;-91
2023/10/12 10:19:10;;;;;;;55.55;4.65;;;;;;;20.02;36.22;100011.59;6169183;23;20080;-94
2023/10/12 10:21:49;;;;;;;;;;;;;;;;;;;;;
2023/10/12 10:24:33;;;;;;;3.00;1.80;;;;;;;20.18;36.49;100007.31;6179347;23;20405;-93
2023/10/12 10:27:33;;;;;;;5.53;1.70;;;;;;;20.15;35.98;99980.59;6143488;23;20004;-93
2023/10/12 10:31:12;;;;;;;;;;;;;;;;;;;;;
2023/10/12 10:34:22;;;;;;;;;;;;;;;;;;;;;
2023/10/12 10:37:38;;;;;;;;;;;;;;;;;;;;;
2023/10/12 10:47:27;;;;;;;;;;;;;;;;;;;;;
2023/10/12 10:56:47;;;;;;;4.45;1.50;;;;;;;20.89;35.23;99946.91;5991268;22;3640919;-95
2023/10/12 10:59:23;;;;;;;4.53;1.13;;;;;;;20.87;34.51;99931.94;6126958;23;20447;-92
2023/10/12 11:01:50;;;;;;;2.70;1.45;;;;;;;20.91;34.47;99930.94;6141517;23;20005;-92
2023/10/12 11:07:03;;;;;;;6.03;3.08;;;;;;;21.10;34.08;99943.50;6147006;23;20015;-92
2023/10/12 11:09:54;;;;;;;6.68;1.48;;;;;;;21.06;35.19;99934.31;6115622;23;19997;-92
2023/10/12 11:12:22;;;;;;;4.25;1.58;;;;;;;21.02;35.23;99914.97;6158476;23;20096;-93
2023/10/12 11:15:00;;;;;;;4.80;1.60;;;;;;;21.07;35.31;99911.28;6144263;23;20020;-94
2023/10/12 11:21:17;;;;;;;;;;;;;;;;;;;;;
2023/10/12 11:26:45;;;;;;;1.95;1.30;;;;;;;21.40;34.53;99911.53;6143032;23;20018;-95
2023/10/12 11:29:22;;;;;;;3.45;1.30;;;;;;;21.42;34.40;99905.72;6066161;23;20401;-96
2023/10/12 11:32:10;;;;;;;4.07;1.60;;;;;;;21.37;33.97;99888.34;6091465;23;20006;-96
2023/10/12 11:34:44;;;;;;;3.33;1.38;;;;;;;21.52;33.63;99906.19;6058988;23;20006;-93
2023/10/12 11:37:15;;;;;;;2.42;1.38;;;;;;;21.53;33.61;99887.81;6088649;23;20009;-96
2023/10/12 11:40:25;;;;;;;2.17;1.38;;;;;;;21.52;33.86;99878.78;6062121;23;20002;-94
2023/10/12 11:42:53;;;;;;;2.08;1.20;;;;;;;21.48;33.33;99879.75;6101430;23;20064;-94
2023/10/12 11:45:22;;;;;;;2.22;1.30;;;;;;;21.55;33.58;99886.34;6085977;23;20062;-94
2023/10/12 11:47:53;;;;;;;2.45;1.40;;;;;;;21.63;32.88;99900.34;6064107;23;19998;-95
2023/10/12 11:53:58;;;;;;;;;;;;;;;21.61;33.28;99902.59;6190749;22;20325;-95
2023/10/12 12:05:11;;;;;;;2.80;2.17;;;;;;;21.57;33.61;99894.22;6197302;23;20021;-94
2023/10/12 12:08:56;;;;;;;;;;;;;;;;;;;;;
2023/10/12 12:33:41;;;;;;;3.72;1.50;;;;;;;21.69;32.79;99836.78;6089644;23;20522;-96
2023/10/12 12:36:42;;;;;;;;;;;;;;;;;;;;;
2023/10/12 12:39:32;;;;;;;;;;;;;;;;;;;;;
2023/10/12 12:42:01;;;;;;;2.40;1.25;;;;;;;21.78;32.49;99836.72;6104793;23;20029;-93
2023/10/12 12:44:39;;;;;;;4.88;1.30;;;;;;;21.85;32.05;99830.72;6123679;23;20001;-95
2023/10/12 12:47:06;;;;;;;4.15;1.30;;;;;;;21.92;31.71;99836.47;6154401;23;20009;-94
2023/10/12 12:55:37;;;;;;;;;;;;;;;;;;;;;
2023/10/12 12:58:19;;;;;;;;;;;;;;;;;;;;;
2023/10/12 13:01:41;;;;;;;;;;;;;;;;;;;;;
2023/10/12 13:04:18;;;;;;;2.22;1.10;;;;;;;21.92;31.70;99820.03;6173581;23;20016;-95
2023/10/12 13:06:56;;;;;;;3.88;1.27;;;;;;;21.87;31.51;99803.75;6096764;23;20013;-96
2023/10/12 13:10:00;;;;;;;;;;;;;;;;;;;;;
2023/10/12 13:15:24;;;;;;;;;;;;;;;;;;;;;
2023/10/12 13:18:21;;;;;;;4.00;1.60;;;;;;;21.85;32.06;99790.41;6131046;23;20016;-96
2023/10/12 13:21:17;;;;;;;2.60;1.42;;;;;;;22.02;32.11;99818.81;6099733;23;20022;-96
2023/10/12 13:32:38;;;;;;;2.25;1.10;;;;;;;21.95;32.28;99800.94;6228277;22;20034;-94
2023/10/12 13:35:18;;;;;;;4.25;1.45;;;;;;;21.91;32.17;99785.50;6165548;23;20012;-95
2023/10/12 13:40:29;;;;;;;4.95;1.23;;;;;;;21.89;32.10;99791.31;6228808;22;20030;-96
2023/10/12 13:43:05;;;;;;;2.38;1.30;;;;;;;21.70;32.36;99766.31;6186648;23;20076;-94
2023/10/12 13:45:41;;;;;;;2.72;1.65;;;;;;;21.74;32.34;99761.78;6156554;23;20008;-96
2023/10/12 13:48:42;;;;;;;;;;;;;;;;;;;;;
2023/10/12 13:51:08;;;;;;;2.23;1.20;;;;;;;21.67;32.56;99751.34;6232466;23;20001;-92
2023/10/12 13:53:38;;;;;;;3.97;1.30;;;;;;;21.71;32.95;99755.03;6198983;23;20004;-94
2023/10/12 13:56:34;;;;;;;3.83;1.40;;;;;;;21.67;33.06;99765.06;6177944;23;19996;-95
2023/10/12 13:59:03;;;;;;;2.47;1.70;;;;;;;21.79;32.60;99773.34;6094150;23;20029;-94
2023/10/12 14:01:36;;;;;;;2.00;1.33;;;;;;;21.86;32.21;99780.25;6064354;23;20025;-92
2023/10/12 14:04:33;;;;;;;;;;;;;;;;;;;;;
2023/10/12 14:06:56;;;;;;;2.88;1.20;;;;;;;21.64;32.20;99752.00;6114563;23;20433;-95
2023/10/12 14:09:27;;;;;;;2.88;1.20;;;;;;;21.65;32.68;99759.09;6062397;23;20093;-95
2023/10/12 14:11:54;;;;;;;2.37;1.40;;;;;;;21.53;33.01;99745.31;6062533;23;20040;-96
2023/10/12 14:14:30;;;;;;;7.50;1.52;;;;;;;21.59;33.01;99757.69;6107375;23;20077;-95
2023/10/12 14:16:55;;;;;;;1.75;1.30;;;;;;;21.50;33.01;99748.72;6063299;23;20363;-95
2023/10/12 14:19:35;;;;;;;3.22;1.45;;;;;;;21.46;33.58;99745.84;6090928;23;20017;-95
2023/10/12 14:26:00;;;;;;;;;;;;;;;;;;;;;
2023/10/12 14:34:38;;;;;;;1.67;1.20;;;;;;;21.23;33.27;99742.59;6228519;22;20025;-96
2023/10/12 14:37:13;;;;;;;3.95;1.40;;;;;;;21.16;33.02;99731.31;6177526;23;20071;-94
2023/10/12 14:40:19;;;;;;;7.10;1.80;;;;;;;21.12;33.84;99733.13;6157277;23;19992;-94
2023/10/12 14:42:46;;;;;;;1.83;1.30;;;;;;;21.18;33.22;99749.03;6136958;23;20012;-94
2023/10/12 14:45:19;;;;;;;2.67;1.40;;;;;;;20.98;33.72;99716.94;6114939;23;20001;-95
2023/10/12 14:47:47;;;;;;;;;;;;;;;21.15;33.38;99766.13;6112812;23;20492;-93
2023/10/12 14:50:20;;;;;;;3.47;1.45;;;;;;;20.94;34.05;99737.91;6110632;23;19911;-93
2023/10/12 14:52:49;;;;;;;4.70;1.50;;;;;;;20.88;33.87;99731.00;6092013;23;20001;-94
2023/10/12 14:55:26;;;;;;;3.10;1.90;;;;;;;20.81;34.65;99730.69;6112559;23;20098;-94
2023/10/12 14:57:54;;;;;;;13.35;2.72;;;;;;;20.79;35.72;99748.25;6088320;23;20041;-94
2023/10/12 15:00:43;;;;;;;3.65;1.40;;;;;;;20.78;34.19;99751.31;6112426;23;20016;-94
2023/10/12 15:03:12;;;;;;;12.18;2.65;;;;;;;20.73;35.43;99741.34;6127086;23;20085;-95
2023/10/12 15:05:45;;;;;;;11.02;3.53;;;;;;;20.48;36.49;99720.28;6090942;23;20005;-95
2023/10/12 15:08:11;;;;;;;9.80;2.78;;;;;;;20.42;36.56;99727.91;6115209;23;20024;-92
2023/10/12 15:10:55;;;;;;;;;;;;;;;;;;;;;
2023/10/12 15:13:30;;;;;;;14.77;6.90;;;;;;;20.37;36.67;99744.47;6150243;23;20474;-95
2023/10/12 15:15:59;;;;;;;8.10;2.53;;;;;;;20.33;36.00;99752.50;6148038;23;20024;-93
2023/10/12 15:18:28;;;;;;;7.88;2.90;;;;;;;20.27;37.20;99737.38;6149803;23;20005;-92
2023/10/12 15:20:54;;;;;;;14.82;3.33;;;;;;;20.22;37.08;99745.78;6175719;23;20031;-95
2023/10/12 15:23:27;;;;;;;5.95;2.65;;;;;;;20.13;37.12;99745.78;6153614;23;20000;-94
2023/10/12 15:26:06;;;;;;;5.55;2.15;;;;;;;20.09;37.21;99752.25;6201528;23;19997;-93
2023/10/12 15:28:36;;;;;;;8.73;2.75;;;;;;;19.97;37.89;99741.94;6196312;23;20024;-92
2023/10/12 15:31:05;;;;;;;8.68;3.10;;;;;;;19.81;38.05;99727.16;6177123;23;20088;-92
2023/10/12 15:33:33;;;;;;;7.88;3.10;;;;;;;19.82;38.17;99736.94;6175002;23;20021;-94
2023/10/12 15:36:01;;;;;;;7.32;2.97;;;;;;;19.71;38.16;99729.06;6177181;23;19996;-93
2023/10/12 15:38:34;;;;;;;8.77;4.28;;;;;;;19.81;38.36;99763.47;6200050;23;20001;-91
2023/10/12 15:41:03;;;;;;;5.78;2.65;;;;;;;19.58;38.21;99739.00;6173065;23;20016;-94
2023/10/12 15:43:28;;;;;;;6.03;3.13;;;;;;;19.46;38.08;99738.81;6174323;23;20015;-92
2023/10/12 15:45:55;;;;;;;7.82;3.13;;;;;;;19.49;38.84;99751.03;6145779;23;20040;-93
2023/10/12 15:48:26;;;;;;;8.75;3.17;;;;;;;19.49;38.12;99765.50;6197151;23;20054;-92
2023/10/12 15:50:53;;;;;;;6.95;3.22;;;;;;;19.45;38.72;99769.19;6196016;23;20008;-93
2023/10/12 15:53:21;;;;;;;7.78;3.22;;;;;;;19.29;38.99;99760.63;6170799;23;20016;-92
2023/10/12 15:56:03;;;;;;;6.28;3.15;;;;;;;19.25;40.02;99770.56;6147339;23;20016;-93
2023/10/12 15:58:34;;;;;;;8.35;3.08;;;;;;;19.04;40.69;99751.25;6190369;23;20465;-92
2023/10/12 16:01:03;;;;;;;8.18;3.22;;;;;;;19.05;40.87;99761.03;6146465;23;20005;-93
2023/10/12 16:03:29;;;;;;;4.72;3.03;;;;;;;18.95;41.00;99767.59;6173720;23;20008;-93
2023/10/12 16:05:57;;;;;;;6.50;3.45;;;;;;;18.82;40.43;99760.28;6145749;23;20012;-92
2023/10/12 16:08:23;;;;;;;4.93;3.17;;;;;;;18.81;41.11;99772.31;6220431;23;19996;-93
2023/10/12 16:10:53;;;;;;;11.38;3.72;;;;;;;18.55;41.38;99745.66;6168818;23;20005;-92
2023/10/12 16:13:18;;;;;;;14.85;4.82;;;;;;;18.47;41.94;99752.72;6168258;23;20005;-93
2023/10/12 16:15:44;;;;;;;10.18;3.88;;;;;;;18.47;42.33;99757.34;6144119;23;20139;-92
2023/10/12 16:18:11;;;;;;;6.95;3.65;;;;;;;18.40;42.37;99760.50;6169702;23;20015;-92
2023/10/12 16:20:37;;;;;;;7.55;3.45;;;;;;;18.25;42.98;99758.16;6192439;23;19995;-92